sensor_id;sensor_type;location;lat;lon;timestamp;P1;durP1;ratioP1;P2;durP2;ratioP2
23628;SDS011;11991;57.150;-2.134;2022-12-29T00:02:14;1.73;;;1.33;;
23628;SDS011;11991;57.150;-2.134;2022-12-29T00:04:42;1.63;;;1.52;;
23628;SDS011;11991;57.150;-2.134;2022-12-29T00:07:10;1.90;;;1.25;;
23628;SDS011;11991;57.150;-2.134;2022-12-29T00:09:37;1.58;;;1.00;;
23628;SDS011;11991;57.150;-2.134;2022-12-29T00:12:04;1.35;;;1.00;;
23628;SDS011;11991;57.150;-2.134;2022-12-29T00:14:32;1.65;;;1.20;;
23628;SDS011;11991;57.150;-2.134;2022-12-29T00:17:17;1.15;;;1.00;;
23628;SDS011;11991;57.150;-2.134;2022-12-29T00:19:45;1.20;;;0.80;;
23628;SDS011;11991;57.150;-2.134;2022-12-29T00:22:30;0.80;;;0.80;;
23628;SDS011;11991;57.150;-2.134;2022-12-29T00:25:16;0.70;;;0.70;;
23628;SDS011;11991;57.150;-2.134;2022-12-29T00:28:02;0.70;;;0.70;;
23628;SDS011;11991;57.150;-2.134;2022-12-29T00:30:48;0.60;;;0.60;;
23628;SDS011;11991;57.150;-2.134;2022-12-29T00:33:34;0.50;;;0.50;;
23628;SDS011;11991;57.150;-2.134;2022-12-29T00:36:20;0.60;;;0.60;;
23628;SDS011;11991;57.150;-2.134;2022-12-29T00:38:56;0.50;;;0.50;;
23628;SDS011;11991;57.150;-2.134;2022-12-29T00:41:46;0.47;;;0.47;;
23628;SDS011;11991;57.150;-2.134;2022-12-29T00:44:33;0.60;;;0.60;;
23628;SDS011;11991;57.150;-2.134;2022-12-29T00:47:00;0.50;;;0.50;;
23628;SDS011;11991;57.150;-2.134;2022-12-29T00:49:31;1.02;;;0.68;;
23628;SDS011;11991;57.150;-2.134;2022-12-29T00:52:01;0.40;;;0.40;;
23628;SDS011;11991;57.150;-2.134;2022-12-29T00:54:37;0.63;;;0.63;;
23628;SDS011;11991;57.150;-2.134;2022-12-29T00:57:05;0.43;;;0.43;;
23628;SDS011;11991;57.150;-2.134;2022-12-29T00:59:35;1.48;;;0.63;;
23628;SDS011;11991;57.150;-2.134;2022-12-29T01:02:03;1.02;;;0.52;;
23628;SDS011;11991;57.150;-2.134;2022-12-29T01:04:32;0.65;;;0.60;;
23628;SDS011;11991;57.150;-2.134;2022-12-29T01:07:00;0.50;;;0.50;;
23628;SDS011;11991;57.150;-2.134;2022-12-29T01:09:27;0.60;;;0.60;;
23628;SDS011;11991;57.150;-2.134;2022-12-29T01:12:13;0.45;;;0.45;;
23628;SDS011;11991;57.150;-2.134;2022-12-29T01:14:40;0.60;;;0.60;;
23628;SDS011;11991;57.150;-2.134;2022-12-29T01:17:08;0.50;;;0.50;;
23628;SDS011;11991;57.150;-2.134;2022-12-29T01:19:35;0.52;;;0.52;;
23628;SDS011;11991;57.150;-2.134;2022-12-29T01:22:03;0.55;;;0.50;;
23628;SDS011;11991;57.150;-2.134;2022-12-29T01:24:30;0.50;;;0.50;;
23628;SDS011;11991;57.150;-2.134;2022-12-29T01:26:57;0.57;;;0.57;;
23628;SDS011;11991;57.150;-2.134;2022-12-29T01:29:25;0.40;;;0.40;;
23628;SDS011;11991;57.150;-2.134;2022-12-29T01:31:52;0.60;;;0.60;;
23628;SDS011;11991;57.150;-2.134;2022-12-29T01:34:20;0.63;;;0.60;;
23628;SDS011;11991;57.150;-2.134;2022-12-29T01:36:47;0.50;;;0.50;;
23628;SDS011;11991;57.150;-2.134;2022-12-29T01:39:14;1.17;;;0.57;;
23628;SDS011;11991;57.150;-2.134;2022-12-29T01:41:42;0.55;;;0.55;;
23628;SDS011;11991;57.150;-2.134;2022-12-29T01:47:20;0.57;;;0.50;;
23628;SDS011;11991;57.150;-2.134;2022-12-29T01:49:59;0.50;;;0.50;;
23628;SDS011;11991;57.150;-2.134;2022-12-29T01:52:32;0.55;;;0.40;;
23628;SDS011;11991;57.150;-2.134;2022-12-29T01:55:02;0.50;;;0.50;;
23628;SDS011;11991;57.150;-2.134;2022-12-29T01:57:33;0.60;;;0.60;;
23628;SDS011;11991;57.150;-2.134;2022-12-29T02:00:12;0.60;;;0.60;;
23628;SDS011;11991;57.150;-2.134;2022-12-29T02:03:02;0.60;;;0.60;;
23628;SDS011;11991;57.150;-2.134;2022-12-29T02:08:11;0.50;;;0.50;;
23628;SDS011;11991;57.150;-2.134;2022-12-29T02:10:39;0.60;;;0.60;;
23628;SDS011;11991;57.150;-2.134;2022-12-29T02:13:08;0.50;;;0.50;;
23628;SDS011;11991;57.150;-2.134;2022-12-29T02:15:44;0.35;;;0.35;;
23628;SDS011;11991;57.150;-2.134;2022-12-29T02:18:18;0.40;;;0.40;;
23628;SDS011;11991;57.150;-2.134;2022-12-29T02:27:01;0.50;;;0.50;;
23628;SDS011;11991;57.150;-2.134;2022-12-29T02:35:40;0.40;;;0.40;;
23628;SDS011;11991;57.150;-2.134;2022-12-29T02:41:08;0.50;;;0.50;;
23628;SDS011;11991;57.150;-2.134;2022-12-29T02:43:50;0.35;;;0.35;;
23628;SDS011;11991;57.150;-2.134;2022-12-29T02:46:41;1.10;;;1.00;;
23628;SDS011;11991;57.150;-2.134;2022-12-29T02:49:18;0.55;;;0.40;;
23628;SDS011;11991;57.150;-2.134;2022-12-29T02:51:55;0.68;;;0.50;;
23628;SDS011;11991;57.150;-2.134;2022-12-29T02:54:30;0.50;;;0.50;;
23628;SDS011;11991;57.150;-2.134;2022-12-29T03:00:12;0.40;;;0.40;;
23628;SDS011;11991;57.150;-2.134;2022-12-29T03:11:03;0.30;;;0.30;;
23628;SDS011;11991;57.150;-2.134;2022-12-29T03:13:56;0.40;;;0.40;;
23628;SDS011;11991;57.150;-2.134;2022-12-29T03:20:06;0.30;;;0.30;;
23628;SDS011;11991;57.150;-2.134;2022-12-29T03:22:39;0.65;;;0.30;;
23628;SDS011;11991;57.150;-2.134;2022-12-29T03:25:18;0.30;;;0.30;;
23628;SDS011;11991;57.150;-2.134;2022-12-29T03:27:55;0.20;;;0.20;;
23628;SDS011;11991;57.150;-2.134;2022-12-29T03:30:29;0.30;;;0.30;;
23628;SDS011;11991;57.150;-2.134;2022-12-29T03:32:59;0.25;;;0.25;;
23628;SDS011;11991;57.150;-2.134;2022-12-29T03:35:33;0.22;;;0.22;;
23628;SDS011;11991;57.150;-2.134;2022-12-29T03:38:09;0.30;;;0.30;;
23628;SDS011;11991;57.150;-2.134;2022-12-29T03:40:45;0.20;;;0.20;;
23628;SDS011;11991;57.150;-2.134;2022-12-29T03:43:19;0.20;;;0.20;;
23628;SDS011;11991;57.150;-2.134;2022-12-29T03:45:47;0.30;;;0.30;;
23628;SDS011;11991;57.150;-2.134;2022-12-29T03:48:15;0.52;;;0.28;;
23628;SDS011;11991;57.150;-2.134;2022-12-29T03:50:44;0.20;;;0.20;;
23628;SDS011;11991;57.150;-2.134;2022-12-29T03:53:11;0.20;;;0.20;;
23628;SDS011;11991;57.150;-2.134;2022-12-29T03:55:39;0.30;;;0.30;;
23628;SDS011;11991;57.150;-2.134;2022-12-29T03:58:06;0.28;;;0.28;;
23628;SDS011;11991;57.150;-2.134;2022-12-29T04:01:00;0.30;;;0.30;;
23628;SDS011;11991;57.150;-2.134;2022-12-29T04:03:30;0.20;;;0.20;;
23628;SDS011;11991;57.150;-2.134;2022-12-29T04:05:57;0.20;;;0.20;;
23628;SDS011;11991;57.150;-2.134;2022-12-29T04:08:26;0.22;;;0.22;;
23628;SDS011;11991;57.150;-2.134;2022-12-29T04:10:54;0.20;;;0.20;;
23628;SDS011;11991;57.150;-2.134;2022-12-29T04:13:21;0.20;;;0.20;;
23628;SDS011;11991;57.150;-2.134;2022-12-29T04:15:51;0.27;;;0.27;;
23628;SDS011;11991;57.150;-2.134;2022-12-29T04:18:18;0.53;;;0.53;;
23628;SDS011;11991;57.150;-2.134;2022-12-29T04:20:46;0.30;;;0.30;;
23628;SDS011;11991;57.150;-2.134;2022-12-29T04:23:32;0.30;;;0.20;;
23628;SDS011;11991;57.150;-2.134;2022-12-29T04:26:05;0.20;;;0.20;;
23628;SDS011;11991;57.150;-2.134;2022-12-29T04:28:38;0.30;;;0.30;;
23628;SDS011;11991;57.150;-2.134;2022-12-29T04:31:41;0.30;;;0.30;;
23628;SDS011;11991;57.150;-2.134;2022-12-29T04:34:09;0.20;;;0.20;;
23628;SDS011;11991;57.150;-2.134;2022-12-29T04:36:37;0.30;;;0.30;;
23628;SDS011;11991;57.150;-2.134;2022-12-29T04:39:06;0.30;;;0.30;;
23628;SDS011;11991;57.150;-2.134;2022-12-29T04:41:34;0.20;;;0.20;;
23628;SDS011;11991;57.150;-2.134;2022-12-29T04:44:03;0.20;;;0.20;;
23628;SDS011;11991;57.150;-2.134;2022-12-29T04:46:49;0.30;;;0.30;;
23628;SDS011;11991;57.150;-2.134;2022-12-29T04:49:37;0.20;;;0.20;;
23628;SDS011;11991;57.150;-2.134;2022-12-29T04:52:31;0.20;;;0.20;;
23628;SDS011;11991;57.150;-2.134;2022-12-29T04:55:01;0.30;;;0.30;;
23628;SDS011;11991;57.150;-2.134;2022-12-29T04:57:28;0.20;;;0.20;;
23628;SDS011;11991;57.150;-2.134;2022-12-29T04:59:58;0.20;;;0.20;;
23628;SDS011;11991;57.150;-2.134;2022-12-29T05:02:25;0.30;;;0.30;;
23628;SDS011;11991;57.150;-2.134;2022-12-29T05:04:54;0.30;;;0.30;;
23628;SDS011;11991;57.150;-2.134;2022-12-29T05:07:22;0.20;;;0.20;;
23628;SDS011;11991;57.150;-2.134;2022-12-29T05:09:50;0.20;;;0.20;;
23628;SDS011;11991;57.150;-2.134;2022-12-29T05:12:17;0.20;;;0.20;;
23628;SDS011;11991;57.150;-2.134;2022-12-29T05:14:56;0.20;;;0.20;;
23628;SDS011;11991;57.150;-2.134;2022-12-29T05:17:23;0.20;;;0.20;;
23628;SDS011;11991;57.150;-2.134;2022-12-29T05:19:51;0.20;;;0.20;;
23628;SDS011;11991;57.150;-2.134;2022-12-29T05:26:31;0.20;;;0.20;;
23628;SDS011;11991;57.150;-2.134;2022-12-29T05:29:29;0.20;;;0.20;;
23628;SDS011;11991;57.150;-2.134;2022-12-29T05:31:57;0.20;;;0.20;;
23628;SDS011;11991;57.150;-2.134;2022-12-29T05:34:25;0.30;;;0.30;;
23628;SDS011;11991;57.150;-2.134;2022-12-29T05:36:52;0.30;;;0.30;;
23628;SDS011;11991;57.150;-2.134;2022-12-29T05:39:20;0.30;;;0.30;;
23628;SDS011;11991;57.150;-2.134;2022-12-29T05:41:53;0.20;;;0.20;;
23628;SDS011;11991;57.150;-2.134;2022-12-29T05:44:35;0.30;;;0.30;;
23628;SDS011;11991;57.150;-2.134;2022-12-29T05:47:06;0.30;;;0.30;;
23628;SDS011;11991;57.150;-2.134;2022-12-29T05:50:00;0.30;;;0.30;;
23628;SDS011;11991;57.150;-2.134;2022-12-29T05:52:50;0.30;;;0.30;;
23628;SDS011;11991;57.150;-2.134;2022-12-29T05:55:19;0.20;;;0.20;;
23628;SDS011;11991;57.150;-2.134;2022-12-29T05:57:48;0.47;;;0.30;;
23628;SDS011;11991;57.150;-2.134;2022-12-29T06:00:16;0.20;;;0.20;;
23628;SDS011;11991;57.150;-2.134;2022-12-29T06:02:45;0.20;;;0.20;;
23628;SDS011;11991;57.150;-2.134;2022-12-29T06:05:14;0.30;;;0.30;;
23628;SDS011;11991;57.150;-2.134;2022-12-29T06:07:42;0.27;;;0.27;;
23628;SDS011;11991;57.150;-2.134;2022-12-29T06:10:13;0.27;;;0.27;;
23628;SDS011;11991;57.150;-2.134;2022-12-29T06:12:44;0.20;;;0.20;;
23628;SDS011;11991;57.150;-2.134;2022-12-29T06:15:14;0.30;;;0.30;;
23628;SDS011;11991;57.150;-2.134;2022-12-29T06:17:43;0.20;;;0.20;;
23628;SDS011;11991;57.150;-2.134;2022-12-29T06:20:11;0.30;;;0.30;;
23628;SDS011;11991;57.150;-2.134;2022-12-29T06:22:38;0.20;;;0.20;;
23628;SDS011;11991;57.150;-2.134;2022-12-29T06:25:06;0.20;;;0.20;;
23628;SDS011;11991;57.150;-2.134;2022-12-29T06:27:35;0.20;;;0.20;;
23628;SDS011;11991;57.150;-2.134;2022-12-29T06:30:02;0.30;;;0.30;;
23628;SDS011;11991;57.150;-2.134;2022-12-29T06:32:30;0.30;;;0.30;;
23628;SDS011;11991;57.150;-2.134;2022-12-29T06:35:03;0.20;;;0.20;;
23628;SDS011;11991;57.150;-2.134;2022-12-29T06:37:37;0.30;;;0.30;;
23628;SDS011;11991;57.150;-2.134;2022-12-29T06:40:05;0.30;;;0.30;;
23628;SDS011;11991;57.150;-2.134;2022-12-29T06:42:52;0.30;;;0.30;;
23628;SDS011;11991;57.150;-2.134;2022-12-29T06:45:57;0.20;;;0.20;;
23628;SDS011;11991;57.150;-2.134;2022-12-29T06:48:25;0.30;;;0.30;;
23628;SDS011;11991;57.150;-2.134;2022-12-29T06:50:52;0.20;;;0.20;;
23628;SDS011;11991;57.150;-2.134;2022-12-29T06:53:20;0.30;;;0.30;;
23628;SDS011;11991;57.150;-2.134;2022-12-29T06:55:47;0.30;;;0.30;;
23628;SDS011;11991;57.150;-2.134;2022-12-29T06:58:14;0.20;;;0.20;;
23628;SDS011;11991;57.150;-2.134;2022-12-29T07:00:42;0.23;;;0.23;;
23628;SDS011;11991;57.150;-2.134;2022-12-29T07:03:10;0.20;;;0.20;;
23628;SDS011;11991;57.150;-2.134;2022-12-29T07:05:37;0.30;;;0.30;;
23628;SDS011;11991;57.150;-2.134;2022-12-29T07:08:04;0.30;;;0.30;;
23628;SDS011;11991;57.150;-2.134;2022-12-29T07:10:32;0.30;;;0.30;;
23628;SDS011;11991;57.150;-2.134;2022-12-29T07:13:00;0.30;;;0.30;;
23628;SDS011;11991;57.150;-2.134;2022-12-29T07:15:27;0.33;;;0.33;;
23628;SDS011;11991;57.150;-2.134;2022-12-29T07:17:54;0.20;;;0.20;;
23628;SDS011;11991;57.150;-2.134;2022-12-29T07:20:22;0.20;;;0.20;;
23628;SDS011;11991;57.150;-2.134;2022-12-29T07:22:52;0.90;;;0.30;;
23628;SDS011;11991;57.150;-2.134;2022-12-29T07:25:20;0.40;;;0.40;;
23628;SDS011;11991;57.150;-2.134;2022-12-29T07:27:47;0.30;;;0.30;;
23628;SDS011;11991;57.150;-2.134;2022-12-29T07:30:15;0.30;;;0.30;;
23628;SDS011;11991;57.150;-2.134;2022-12-29T07:32:42;0.30;;;0.30;;
23628;SDS011;11991;57.150;-2.134;2022-12-29T07:35:10;0.30;;;0.30;;
23628;SDS011;11991;57.150;-2.134;2022-12-29T07:37:37;0.27;;;0.27;;
23628;SDS011;11991;57.150;-2.134;2022-12-29T07:40:05;0.30;;;0.30;;
23628;SDS011;11991;57.150;-2.134;2022-12-29T07:42:32;0.43;;;0.40;;
23628;SDS011;11991;57.150;-2.134;2022-12-29T07:45:00;0.30;;;0.30;;
23628;SDS011;11991;57.150;-2.134;2022-12-29T07:47:49;0.40;;;0.30;;
23628;SDS011;11991;57.150;-2.134;2022-12-29T07:50:16;0.43;;;0.40;;
23628;SDS011;11991;57.150;-2.134;2022-12-29T07:52:43;0.30;;;0.30;;
23628;SDS011;11991;57.150;-2.134;2022-12-29T07:55:12;0.30;;;0.30;;
23628;SDS011;11991;57.150;-2.134;2022-12-29T07:57:40;0.30;;;0.30;;
23628;SDS011;11991;57.150;-2.134;2022-12-29T08:00:09;1.03;;;0.40;;
23628;SDS011;11991;57.150;-2.134;2022-12-29T08:02:37;0.40;;;0.40;;
23628;SDS011;11991;57.150;-2.134;2022-12-29T08:05:05;0.30;;;0.30;;
23628;SDS011;11991;57.150;-2.134;2022-12-29T08:07:33;0.40;;;0.40;;
23628;SDS011;11991;57.150;-2.134;2022-12-29T08:10:00;0.40;;;0.40;;
23628;SDS011;11991;57.150;-2.134;2022-12-29T08:12:28;0.43;;;0.40;;
23628;SDS011;11991;57.150;-2.134;2022-12-29T08:14:56;0.40;;;0.40;;
23628;SDS011;11991;57.150;-2.134;2022-12-29T08:17:23;0.30;;;0.30;;
23628;SDS011;11991;57.150;-2.134;2022-12-29T08:19:51;0.77;;;0.77;;
23628;SDS011;11991;57.150;-2.134;2022-12-29T08:22:19;0.40;;;0.40;;
23628;SDS011;11991;57.150;-2.134;2022-12-29T08:24:46;0.30;;;0.30;;
23628;SDS011;11991;57.150;-2.134;2022-12-29T08:27:14;0.30;;;0.30;;
23628;SDS011;11991;57.150;-2.134;2022-12-29T08:29:46;0.40;;;0.40;;
23628;SDS011;11991;57.150;-2.134;2022-12-29T08:32:14;0.30;;;0.30;;
23628;SDS011;11991;57.150;-2.134;2022-12-29T08:34:41;0.90;;;0.40;;
23628;SDS011;11991;57.150;-2.134;2022-12-29T08:37:09;0.33;;;0.33;;
23628;SDS011;11991;57.150;-2.134;2022-12-29T08:39:36;0.30;;;0.30;;
23628;SDS011;11991;57.150;-2.134;2022-12-29T08:42:03;0.40;;;0.40;;
23628;SDS011;11991;57.150;-2.134;2022-12-29T08:44:31;0.40;;;0.40;;
23628;SDS011;11991;57.150;-2.134;2022-12-29T08:46:58;0.60;;;0.50;;
23628;SDS011;11991;57.150;-2.134;2022-12-29T08:49:25;0.50;;;0.50;;
23628;SDS011;11991;57.150;-2.134;2022-12-29T08:51:53;0.40;;;0.40;;
23628;SDS011;11991;57.150;-2.134;2022-12-29T08:54:20;0.80;;;0.80;;
23628;SDS011;11991;57.150;-2.134;2022-12-29T08:56:48;0.73;;;0.70;;
23628;SDS011;11991;57.150;-2.134;2022-12-29T08:59:16;1.10;;;0.90;;
23628;SDS011;11991;57.150;-2.134;2022-12-29T09:01:46;0.50;;;0.50;;
23628;SDS011;11991;57.150;-2.134;2022-12-29T09:04:13;0.40;;;0.40;;
23628;SDS011;11991;57.150;-2.134;2022-12-29T09:06:44;0.77;;;0.50;;
23628;SDS011;11991;57.150;-2.134;2022-12-29T09:09:12;0.40;;;0.40;;
23628;SDS011;11991;57.150;-2.134;2022-12-29T09:11:40;0.67;;;0.50;;
23628;SDS011;11991;57.150;-2.134;2022-12-29T09:14:08;0.40;;;0.40;;
23628;SDS011;11991;57.150;-2.134;2022-12-29T09:16:36;0.83;;;0.40;;
23628;SDS011;11991;57.150;-2.134;2022-12-29T09:19:04;0.40;;;0.40;;
23628;SDS011;11991;57.150;-2.134;2022-12-29T09:21:32;0.30;;;0.30;;
23628;SDS011;11991;57.150;-2.134;2022-12-29T09:24:00;0.40;;;0.40;;
23628;SDS011;11991;57.150;-2.134;2022-12-29T09:26:27;0.40;;;0.40;;
23628;SDS011;11991;57.150;-2.134;2022-12-29T09:28:54;0.30;;;0.30;;
23628;SDS011;11991;57.150;-2.134;2022-12-29T09:31:22;0.40;;;0.40;;
23628;SDS011;11991;57.150;-2.134;2022-12-29T09:33:49;0.90;;;0.43;;
23628;SDS011;11991;57.150;-2.134;2022-12-29T09:36:16;1.00;;;0.90;;
23628;SDS011;11991;57.150;-2.134;2022-12-29T09:38:45;2.03;;;1.50;;
23628;SDS011;11991;57.150;-2.134;2022-12-29T09:41:15;0.70;;;0.70;;
23628;SDS011;11991;57.150;-2.134;2022-12-29T09:46:43;1.50;;;1.40;;
23628;SDS011;11991;57.150;-2.134;2022-12-29T09:51:57;0.80;;;0.80;;
23628;SDS011;11991;57.150;-2.134;2022-12-29T09:57:18;1.00;;;1.00;;
23628;SDS011;11991;57.150;-2.134;2022-12-29T09:59:50;1.23;;;0.67;;
23628;SDS011;11991;57.150;-2.134;2022-12-29T10:02:32;0.47;;;0.47;;
23628;SDS011;11991;57.150;-2.134;2022-12-29T10:05:09;0.50;;;0.50;;
23628;SDS011;11991;57.150;-2.134;2022-12-29T10:07:52;1.43;;;0.70;;
23628;SDS011;11991;57.150;-2.134;2022-12-29T10:10:57;0.50;;;0.50;;
23628;SDS011;11991;57.150;-2.134;2022-12-29T10:13:34;0.67;;;0.67;;
23628;SDS011;11991;57.150;-2.134;2022-12-29T10:16:38;0.33;;;0.33;;
23628;SDS011;11991;57.150;-2.134;2022-12-29T10:24:34;0.50;;;0.50;;
23628;SDS011;11991;57.150;-2.134;2022-12-29T10:27:09;0.30;;;0.30;;
23628;SDS011;11991;57.150;-2.134;2022-12-29T10:29:43;0.43;;;0.43;;
23628;SDS011;11991;57.150;-2.134;2022-12-29T10:32:29;0.57;;;0.40;;
23628;SDS011;11991;57.150;-2.134;2022-12-29T10:40:38;0.40;;;0.40;;
23628;SDS011;11991;57.150;-2.134;2022-12-29T10:43:22;0.30;;;0.30;;
23628;SDS011;11991;57.150;-2.134;2022-12-29T10:45:59;0.40;;;0.40;;
23628;SDS011;11991;57.150;-2.134;2022-12-29T10:48:32;0.47;;;0.47;;
23628;SDS011;11991;57.150;-2.134;2022-12-29T10:51:01;0.68;;;0.30;;
23628;SDS011;11991;57.150;-2.134;2022-12-29T10:53:40;0.40;;;0.40;;
23628;SDS011;11991;57.150;-2.134;2022-12-29T10:58:58;1.92;;;1.48;;
23628;SDS011;11991;57.150;-2.134;2022-12-29T11:01:39;0.50;;;0.50;;
23628;SDS011;11991;57.150;-2.134;2022-12-29T11:07:05;0.50;;;0.50;;
23628;SDS011;11991;57.150;-2.134;2022-12-29T11:09:41;0.73;;;0.68;;
23628;SDS011;11991;57.150;-2.134;2022-12-29T11:12:31;0.47;;;0.47;;
23628;SDS011;11991;57.150;-2.134;2022-12-29T11:17:28;0.50;;;0.50;;
23628;SDS011;11991;57.150;-2.134;2022-12-29T11:19:55;0.30;;;0.30;;
23628;SDS011;11991;57.150;-2.134;2022-12-29T11:22:24;0.63;;;0.50;;
23628;SDS011;11991;57.150;-2.134;2022-12-29T11:25:04;0.50;;;0.50;;
23628;SDS011;11991;57.150;-2.134;2022-12-29T11:27:36;0.55;;;0.47;;
23628;SDS011;11991;57.150;-2.134;2022-12-29T11:30:10;0.93;;;0.50;;
23628;SDS011;11991;57.150;-2.134;2022-12-29T11:32:53;1.10;;;0.60;;
23628;SDS011;11991;57.150;-2.134;2022-12-29T11:35:33;0.45;;;0.45;;
23628;SDS011;11991;57.150;-2.134;2022-12-29T11:38:05;0.38;;;0.38;;
23628;SDS011;11991;57.150;-2.134;2022-12-29T11:40:41;0.40;;;0.40;;
23628;SDS011;11991;57.150;-2.134;2022-12-29T11:43:15;0.40;;;0.40;;
23628;SDS011;11991;57.150;-2.134;2022-12-29T11:45:51;0.63;;;0.63;;
23628;SDS011;11991;57.150;-2.134;2022-12-29T11:48:20;0.40;;;0.40;;
23628;SDS011;11991;57.150;-2.134;2022-12-29T11:50:50;1.40;;;0.50;;
23628;SDS011;11991;57.150;-2.134;2022-12-29T11:53:42;0.40;;;0.40;;
23628;SDS011;11991;57.150;-2.134;2022-12-29T11:56:19;0.47;;;0.47;;
23628;SDS011;11991;57.150;-2.134;2022-12-29T12:04:53;1.23;;;0.80;;
23628;SDS011;11991;57.150;-2.134;2022-12-29T12:10:23;0.50;;;0.50;;
23628;SDS011;11991;57.150;-2.134;2022-12-29T12:12:58;1.52;;;0.40;;
23628;SDS011;11991;57.150;-2.134;2022-12-29T12:15:42;0.45;;;0.45;;
23628;SDS011;11991;57.150;-2.134;2022-12-29T12:18:30;0.40;;;0.40;;
23628;SDS011;11991;57.150;-2.134;2022-12-29T12:21:14;0.50;;;0.50;;
23628;SDS011;11991;57.150;-2.134;2022-12-29T12:27:21;1.10;;;0.60;;
23628;SDS011;11991;57.150;-2.134;2022-12-29T12:29:24;0.40;;;0.40;;
23628;SDS011;11991;57.150;-2.134;2022-12-29T12:32:03;0.55;;;0.55;;
23628;SDS011;11991;57.150;-2.134;2022-12-29T12:34:44;0.57;;;0.52;;
23628;SDS011;11991;57.150;-2.134;2022-12-29T12:45:43;0.93;;;0.85;;
23628;SDS011;11991;57.150;-2.134;2022-12-29T12:57:02;3.30;;;2.20;;
23628;SDS011;11991;57.150;-2.134;2022-12-29T13:00:14;2.92;;;2.42;;
23628;SDS011;11991;57.150;-2.134;2022-12-29T13:08:42;3.35;;;2.20;;
23628;SDS011;11991;57.150;-2.134;2022-12-29T13:17:27;2.25;;;1.90;;
23628;SDS011;11991;57.150;-2.134;2022-12-29T13:20:24;1.70;;;1.33;;
23628;SDS011;11991;57.150;-2.134;2022-12-29T13:23:02;1.80;;;1.30;;
23628;SDS011;11991;57.150;-2.134;2022-12-29T13:26:01;1.25;;;1.15;;
23628;SDS011;11991;57.150;-2.134;2022-12-29T13:28:54;1.30;;;0.80;;
23628;SDS011;11991;57.150;-2.134;2022-12-29T13:31:57;1.15;;;0.85;;
23628;SDS011;11991;57.150;-2.134;2022-12-29T13:34:39;0.70;;;0.65;;
23628;SDS011;11991;57.150;-2.134;2022-12-29T13:37:27;0.55;;;0.52;;
23628;SDS011;11991;57.150;-2.134;2022-12-29T13:39:59;0.82;;;0.60;;
23628;SDS011;11991;57.150;-2.134;2022-12-29T13:42:36;0.50;;;0.50;;
23628;SDS011;11991;57.150;-2.134;2022-12-29T13:45:10;0.68;;;0.52;;
23628;SDS011;11991;57.150;-2.134;2022-12-29T13:47:44;0.68;;;0.57;;
23628;SDS011;11991;57.150;-2.134;2022-12-29T13:50:17;0.75;;;0.70;;
23628;SDS011;11991;57.150;-2.134;2022-12-29T13:55:55;0.40;;;0.40;;
23628;SDS011;11991;57.150;-2.134;2022-12-29T14:03:54;3.08;;;2.15;;
23628;SDS011;11991;57.150;-2.134;2022-12-29T14:06:30;2.72;;;1.60;;
23628;SDS011;11991;57.150;-2.134;2022-12-29T14:09:00;3.63;;;2.15;;
23628;SDS011;11991;57.150;-2.134;2022-12-29T14:11:33;1.58;;;1.00;;
23628;SDS011;11991;57.150;-2.134;2022-12-29T14:14:22;5.50;;;3.10;;
23628;SDS011;11991;57.150;-2.134;2022-12-29T14:16:51;10.50;;;5.57;;
23628;SDS011;11991;57.150;-2.134;2022-12-29T14:21:59;1.20;;;1.10;;
23628;SDS011;11991;57.150;-2.134;2022-12-29T14:27:51;1.90;;;1.50;;
23628;SDS011;11991;57.150;-2.134;2022-12-29T14:29:47;1.08;;;0.93;;
23628;SDS011;11991;57.150;-2.134;2022-12-29T14:34:53;0.95;;;0.80;;
23628;SDS011;11991;57.150;-2.134;2022-12-29T14:37:23;0.70;;;0.70;;
23628;SDS011;11991;57.150;-2.134;2022-12-29T14:39:52;0.93;;;0.70;;
23628;SDS011;11991;57.150;-2.134;2022-12-29T14:42:40;0.93;;;0.68;;
23628;SDS011;11991;57.150;-2.134;2022-12-29T14:47:42;1.38;;;0.98;;
23628;SDS011;11991;57.150;-2.134;2022-12-29T14:58:14;1.35;;;0.98;;
23628;SDS011;11991;57.150;-2.134;2022-12-29T15:00:45;1.40;;;1.15;;
23628;SDS011;11991;57.150;-2.134;2022-12-29T15:05:53;1.00;;;0.90;;
23628;SDS011;11991;57.150;-2.134;2022-12-29T15:08:47;0.93;;;0.70;;
23628;SDS011;11991;57.150;-2.134;2022-12-29T15:11:23;0.68;;;0.60;;
23628;SDS011;11991;57.150;-2.134;2022-12-29T15:17:10;0.88;;;0.60;;
23628;SDS011;11991;57.150;-2.134;2022-12-29T15:19:59;0.80;;;0.80;;
23628;SDS011;11991;57.150;-2.134;2022-12-29T15:22:44;1.38;;;0.95;;
23628;SDS011;11991;57.150;-2.134;2022-12-29T15:25:15;1.08;;;0.80;;
23628;SDS011;11991;57.150;-2.134;2022-12-29T15:27:48;1.00;;;0.80;;
23628;SDS011;11991;57.150;-2.134;2022-12-29T15:30:19;1.33;;;0.70;;
23628;SDS011;11991;57.150;-2.134;2022-12-29T15:32:47;0.60;;;0.60;;
23628;SDS011;11991;57.150;-2.134;2022-12-29T15:35:27;0.90;;;0.77;;
23628;SDS011;11991;57.150;-2.134;2022-12-29T15:37:55;1.42;;;0.90;;
23628;SDS011;11991;57.150;-2.134;2022-12-29T15:40:23;1.45;;;1.00;;
23628;SDS011;11991;57.150;-2.134;2022-12-29T15:43:03;1.90;;;1.40;;
23628;SDS011;11991;57.150;-2.134;2022-12-29T15:45:38;0.70;;;0.70;;
23628;SDS011;11991;57.150;-2.134;2022-12-29T15:48:05;0.68;;;0.63;;
23628;SDS011;11991;57.150;-2.134;2022-12-29T15:50:42;0.63;;;0.63;;
23628;SDS011;11991;57.150;-2.134;2022-12-29T15:53:11;0.60;;;0.60;;
23628;SDS011;11991;57.150;-2.134;2022-12-29T15:55:44;1.73;;;1.13;;
23628;SDS011;11991;57.150;-2.134;2022-12-29T15:58:24;1.40;;;1.05;;
23628;SDS011;11991;57.150;-2.134;2022-12-29T16:00:57;1.42;;;1.33;;
23628;SDS011;11991;57.150;-2.134;2022-12-29T16:03:27;1.10;;;1.00;;
23628;SDS011;11991;57.150;-2.134;2022-12-29T16:06:09;1.33;;;1.00;;
23628;SDS011;11991;57.150;-2.134;2022-12-29T16:08:56;0.95;;;0.95;;
23628;SDS011;11991;57.150;-2.134;2022-12-29T16:14:13;1.30;;;0.98;;
23628;SDS011;11991;57.150;-2.134;2022-12-29T16:16:50;1.45;;;1.35;;
23628;SDS011;11991;57.150;-2.134;2022-12-29T16:19:19;1.35;;;1.25;;
23628;SDS011;11991;57.150;-2.134;2022-12-29T16:21:54;1.15;;;0.82;;
23628;SDS011;11991;57.150;-2.134;2022-12-29T16:24:23;1.13;;;1.02;;
23628;SDS011;11991;57.150;-2.134;2022-12-29T16:29:22;0.70;;;0.70;;
23628;SDS011;11991;57.150;-2.134;2022-12-29T16:31:51;3.17;;;2.05;;
23628;SDS011;11991;57.150;-2.134;2022-12-29T16:40:13;1.83;;;1.20;;
23628;SDS011;11991;57.150;-2.134;2022-12-29T16:42:45;1.50;;;1.13;;
23628;SDS011;11991;57.150;-2.134;2022-12-29T16:48:28;1.30;;;0.93;;
23628;SDS011;11991;57.150;-2.134;2022-12-29T16:50:38;1.92;;;1.02;;
23628;SDS011;11991;57.150;-2.134;2022-12-29T16:56:13;2.20;;;1.40;;
23628;SDS011;11991;57.150;-2.134;2022-12-29T16:58:47;1.55;;;1.20;;
23628;SDS011;11991;57.150;-2.134;2022-12-29T17:01:16;1.60;;;1.48;;
23628;SDS011;11991;57.150;-2.134;2022-12-29T17:03:47;1.10;;;0.95;;
23628;SDS011;11991;57.150;-2.134;2022-12-29T17:06:18;1.03;;;0.60;;
23628;SDS011;11991;57.150;-2.134;2022-12-29T17:08:47;2.53;;;1.10;;
23628;SDS011;11991;57.150;-2.134;2022-12-29T17:17:18;1.73;;;1.10;;
23628;SDS011;11991;57.150;-2.134;2022-12-29T17:20:03;0.80;;;0.73;;
23628;SDS011;11991;57.150;-2.134;2022-12-29T17:22:32;0.73;;;0.60;;
23628;SDS011;11991;57.150;-2.134;2022-12-29T17:25:00;0.60;;;0.60;;
23628;SDS011;11991;57.150;-2.134;2022-12-29T17:27:36;0.50;;;0.50;;
23628;SDS011;11991;57.150;-2.134;2022-12-29T17:30:11;1.50;;;1.17;;
23628;SDS011;11991;57.150;-2.134;2022-12-29T17:32:40;1.60;;;1.00;;
23628;SDS011;11991;57.150;-2.134;2022-12-29T17:35:15;0.63;;;0.63;;
23628;SDS011;11991;57.150;-2.134;2022-12-29T17:37:44;0.83;;;0.80;;
23628;SDS011;11991;57.150;-2.134;2022-12-29T17:40:16;0.63;;;0.63;;
23628;SDS011;11991;57.150;-2.134;2022-12-29T17:42:46;1.00;;;0.87;;
23628;SDS011;11991;57.150;-2.134;2022-12-29T17:45:15;0.70;;;0.70;;
23628;SDS011;11991;57.150;-2.134;2022-12-29T17:47:45;1.00;;;0.90;;
23628;SDS011;11991;57.150;-2.134;2022-12-29T17:50:13;2.10;;;0.93;;
23628;SDS011;11991;57.150;-2.134;2022-12-29T17:52:50;1.17;;;0.77;;
23628;SDS011;11991;57.150;-2.134;2022-12-29T17:55:26;1.43;;;0.70;;